Terminal Aerodrome Forecast
Issued by NWS

Current Version | Previous Version | Text Only | Print | Product List | Glossary On
Versions: 1 2 3 4 5 6 7 8 9 10 11 12 13
000
FTUS45 KSLC 282337
TAFENV
TAF
KENV 282337Z 2900/2924 13006KT P6SM FEW150
     FM290200 33009KT P6SM SCT150
     FM290700 VRB04KT P6SM FEW150
     FM291600 14010KT P6SM FEW150
      AMD LTD TO CLD VIS AND WIND=

USA.gov is the U.S. government's official web portal to all federal, state and local government web resources and services.